Time;durP1;ratioP1;P1;durP2;ratioP2;P2;SDS_P1;SDS_P2;PMS_P1;PMS_P2;Temp;Humidity;BMP_temperature;BMP_pressure;BME280_temperature;BME280_humidity;BME280_pressure;Samples;Min_cycle;Max_cycle;Signal;HPM_P1;HPM_P2
2023/05/10 00:03:40;;;;;;;4.05;0.80;;;;;;;12.66;100.00;97653.25;15266598;19;20017;-45
2023/05/10 00:09:08;;;;;;;2.08;1.00;;;;;;;12.68;100.00;97644.94;15258564;19;20483;-44
2023/05/10 00:14:33;;;;;;;1.73;0.88;;;;;;;12.66;100.00;97642.44;15282028;19;20014;-47
2023/05/10 00:19:58;;;;;;;1.52;0.95;;;;;;;12.67;100.00;97629.75;15278448;19;20025;-44
2023/05/10 00:25:26;;;;;;;1.00;0.90;;;;;;;12.70;100.00;97634.78;15279247;19;20022;-46
2023/05/10 00:30:51;;;;;;;1.23;1.00;;;;;;;12.72;100.00;97616.50;15276031;19;20023;-44
2023/05/10 00:36:17;;;;;;;1.88;1.00;;;;;;;12.75;100.00;97621.53;15278945;19;20531;-44
2023/05/10 00:41:45;;;;;;;2.28;0.80;;;;;;;12.75;100.00;97608.84;15270227;19;20452;-45
2023/05/10 00:47:11;;;;;;;2.55;0.80;;;;;;;12.75;100.00;97602.59;15279601;19;20022;-49
2023/05/10 00:52:36;;;;;;;1.92;0.95;;;;;;;12.75;100.00;97605.31;15282624;19;20018;-48
2023/05/10 00:58:04;;;;;;;1.77;0.90;;;;;;;12.71;100.00;97594.03;15278790;19;20015;-45
2023/05/10 01:03:30;;;;;;;3.45;0.90;;;;;;;12.70;100.00;97591.53;15283693;19;20020;-47
2023/05/10 01:08:55;;;;;;;2.78;0.80;;;;;;;12.70;100.00;97586.13;15274580;19;20115;-46
2023/05/10 01:14:24;;;;;;;1.30;1.00;;;;;;;12.67;100.00;97578.41;15274804;19;20006;-48
2023/05/10 01:19:51;;;;;;;2.83;0.90;;;;;;;12.64;100.00;97566.94;15274000;19;20050;-48
2023/05/10 01:25:57;;;;;;;2.05;0.90;;;;;;;12.69;100.00;97576.34;15276541;19;20399;-45
2023/05/10 01:31:48;;;;;;;1.90;0.90;;;;;;;12.70;100.00;97575.31;15273623;19;20025;-47
2023/05/10 01:37:22;;;;;;;2.97;1.00;;;;;;;12.72;100.00;97584.06;15281058;19;20111;-48
2023/05/10 01:42:55;;;;;;;1.58;0.90;;;;;;;12.73;100.00;97575.75;15277073;19;20010;-48
2023/05/10 01:48:22;;;;;;;1.50;0.90;;;;;;;12.73;100.00;97562.25;15271247;19;20482;-45
2023/05/10 01:53:51;;;;;;;2.40;0.95;;;;;;;12.74;100.00;97560.41;15275061;19;20026;-47
2023/05/10 01:59:20;;;;;;;1.27;0.90;;;;;;;12.74;100.00;97565.81;15275707;19;20081;-50
2023/05/10 02:04:47;;;;;;;2.58;1.00;;;;;;;12.73;100.00;97564.13;15277706;19;20022;-46
2023/05/10 02:10:17;;;;;;;1.27;0.88;;;;;;;12.71;100.00;97567.00;15275682;19;20093;-49
2023/05/10 02:15:44;;;;;;;1.90;1.00;;;;;;;12.74;100.00;97576.59;15276095;19;20642;-47
2023/05/10 02:21:17;;;;;;;1.83;1.00;;;;;;;12.73;100.00;97575.75;15267130;19;20033;-46
2023/05/10 02:26:46;;;;;;;2.05;0.98;;;;;;;12.75;100.00;97581.00;15276656;19;20097;-48
2023/05/10 02:32:11;;;;;;;1.10;1.00;;;;;;;12.72;100.00;97578.66;15276904;19;20088;-49
2023/05/10 02:37:38;;;;;;;1.25;0.93;;;;;;;12.71;100.00;97577.00;15277849;19;20021;-46
2023/05/10 02:43:07;;;;;;;2.88;1.02;;;;;;;12.69;100.00;97584.44;15274480;19;20025;-46
2023/05/10 02:48:32;;;;;;;2.40;0.98;;;;;;;12.69;100.00;97579.91;15274575;19;20018;-54
2023/05/10 02:53:59;;;;;;;1.23;0.90;;;;;;;12.67;100.00;97575.69;15276024;19;20029;-47
2023/05/10 02:59:27;;;;;;;1.83;1.10;;;;;;;12.67;100.00;97570.28;15272251;19;20048;-46
2023/05/10 03:04:51;;;;;;;2.47;0.90;;;;;;;12.66;100.00;97574.88;15275415;19;20433;-45
2023/05/10 03:10:16;;;;;;;2.95;1.08;;;;;;;12.64;100.00;97577.75;15272443;19;20222;-46
2023/05/10 03:15:51;;;;;;;4.88;1.10;;;;;;;12.62;100.00;97582.53;15273815;19;20029;-51
2023/05/10 03:21:20;;;;;;;2.40;1.00;;;;;;;12.65;100.00;97586.72;15265776;19;20040;-46
2023/05/10 03:26:53;;;;;;;4.32;1.15;;;;;;;12.65;100.00;97578.63;15259952;19;20365;-42
2023/05/10 03:32:21;;;;;;;1.10;1.00;;;;;;;12.64;100.00;97575.06;15266518;19;20534;-43
2023/05/10 03:37:47;;;;;;;1.60;0.93;;;;;;;12.66;100.00;97582.13;15265851;19;20022;-45
2023/05/10 03:43:12;;;;;;;1.67;1.20;;;;;;;12.61;100.00;97593.53;15271329;19;20022;-43
2023/05/10 03:48:39;;;;;;;1.85;0.93;;;;;;;12.61;100.00;97588.97;15281993;19;20367;-43
2023/05/10 03:54:04;;;;;;;2.63;1.00;;;;;;;12.61;100.00;97585.44;15277869;19;20018;-43
2023/05/10 03:59:29;;;;;;;1.10;1.00;;;;;;;12.62;100.00;97596.06;15277380;19;20033;-43
2023/05/10 04:04:57;;;;;;;2.17;1.10;;;;;;;12.57;100.00;97587.69;15285075;19;20026;-44
2023/05/10 04:10:21;;;;;;;2.08;1.10;;;;;;;12.62;100.00;97587.09;15286108;19;20007;-44
2023/05/10 04:15:46;;;;;;;2.35;1.00;;;;;;;12.62;100.00;97587.94;15285412;19;20021;-44
2023/05/10 04:21:13;;;;;;;1.10;1.00;;;;;;;12.64;100.00;97576.94;15284059;19;20045;-44
2023/05/10 04:26:38;;;;;;;1.20;1.00;;;;;;;12.68;100.00;97582.78;15277605;19;20018;-45
2023/05/10 04:32:03;;;;;;;1.20;0.90;;;;;;;12.69;100.00;97585.31;15284195;19;20018;-44
2023/05/10 04:37:31;;;;;;;1.67;1.08;;;;;;;12.70;100.00;97589.66;15282057;19;20051;-45
2023/05/10 04:42:55;;;;;;;1.52;0.90;;;;;;;12.74;100.00;97592.81;15282506;19;20018;-43
2023/05/10 04:48:20;;;;;;;3.05;0.95;;;;;;;12.75;100.00;97584.50;15281412;19;20021;-43
2023/05/10 04:53:48;;;;;;;1.60;0.90;;;;;;;12.78;100.00;97585.97;15284160;19;20014;-44
2023/05/10 04:59:23;;;;;;;1.70;0.90;;;;;;;12.79;100.00;97584.94;15271845;19;20030;-44
2023/05/10 05:04:47;;;;;;;3.38;0.93;;;;;;;12.78;100.00;97596.78;15277818;19;22088;-43
2023/05/10 05:10:15;;;;;;;2.72;0.90;;;;;;;12.76;100.00;97596.13;15275633;19;20395;-43
2023/05/10 05:15:39;;;;;;;3.05;1.08;;;;;;;12.79;100.00;97611.97;15281950;19;20026;-45
2023/05/10 05:21:04;;;;;;;1.52;1.08;;;;;;;12.79;100.00;97618.22;15280545;19;20022;-45
2023/05/10 05:26:32;;;;;;;1.95;1.08;;;;;;;12.79;100.00;97614.69;15280585;19;20033;-43
2023/05/10 05:31:57;;;;;;;2.28;1.00;;;;;;;12.76;100.00;97609.66;15274981;19;20014;-43
2023/05/10 05:37:24;;;;;;;3.30;1.10;;;;;;;12.74;100.00;97617.97;15289388;19;20083;-43
2023/05/10 05:42:52;;;;;;;1.42;1.02;;;;;;;12.78;100.00;97627.38;15285907;19;20037;-44
2023/05/10 05:48:16;;;;;;;2.35;1.02;;;;;;;12.77;100.00;97628.41;15275736;19;20015;-43
2023/05/10 05:53:41;;;;;;;1.17;1.00;;;;;;;12.83;100.00;97628.63;15279711;19;20097;-45
2023/05/10 05:59:09;;;;;;;1.92;0.95;;;;;;;12.84;100.00;97636.56;15273998;19;20011;-44
2023/05/10 06:04:33;;;;;;;1.95;1.20;;;;;;;12.87;100.00;97643.44;15273684;19;20024;-47
2023/05/10 06:10:00;;;;;;;1.88;1.02;;;;;;;12.92;100.00;97644.53;15273639;19;20061;-45
2023/05/10 06:15:28;;;;;;;2.00;1.10;;;;;;;13.05;100.00;97654.59;14770482;19;10000978;-44
2023/05/10 06:20:53;;;;;;;3.15;1.30;;;;;;;13.16;100.00;97665.94;15282128;19;20021;-44
2023/05/10 06:26:17;;;;;;;1.38;1.23;;;;;;;13.23;100.00;97672.22;15283109;19;20006;-44
2023/05/10 06:31:44;;;;;;;3.42;1.10;;;;;;;13.25;100.00;97670.16;15278171;19;20021;-46
2023/05/10 06:37:09;;;;;;;4.78;1.20;;;;;;;13.27;100.00;97673.50;15270331;19;20370;-46
2023/05/10 06:42:34;;;;;;;1.67;1.30;;;;;;;13.34;100.00;97670.84;15274827;19;20021;-45
2023/05/10 06:48:01;;;;;;;1.35;1.00;;;;;;;13.35;100.00;97681.47;15274408;19;20362;-45
2023/05/10 06:53:25;;;;;;;1.83;1.20;;;;;;;13.31;100.00;97682.06;15276002;19;20077;-43
2023/05/10 06:58:50;;;;;;;1.25;1.15;;;;;;;13.23;100.00;97683.84;15272254;19;20037;-46
2023/05/10 07:04:18;;;;;;;4.00;1.30;;;;;;;13.19;100.00;97688.00;15272078;19;20471;-45
2023/05/10 07:09:42;;;;;;;2.83;1.30;;;;;;;13.21;100.00;97701.31;15261411;19;20052;-47
2023/05/10 07:15:07;;;;;;;1.95;1.30;;;;;;;13.24;100.00;97707.16;15273745;19;20053;-49
2023/05/10 07:20:34;;;;;;;2.13;1.30;;;;;;;13.24;100.00;97699.06;15273108;19;20019;-46
2023/05/10 07:26:00;;;;;;;1.30;1.20;;;;;;;13.16;100.00;97718.13;15272534;19;20038;-44
2023/05/10 07:31:24;;;;;;;1.50;1.30;;;;;;;13.12;100.00;97722.25;15272892;19;20026;-44
2023/05/10 07:36:52;;;;;;;1.80;1.48;;;;;;;13.04;100.00;97730.50;15271070;19;20658;-43
2023/05/10 07:42:16;;;;;;;3.72;1.50;;;;;;;13.12;100.00;97732.25;15267711;19;20006;-45
2023/05/10 07:47:41;;;;;;;1.48;1.30;;;;;;;12.99;100.00;97735.69;15270555;19;20022;-44
2023/05/10 07:53:08;;;;;;;2.97;1.58;;;;;;;13.01;100.00;97739.84;15271535;19;20022;-43
2023/05/10 07:58:34;;;;;;;2.50;1.50;;;;;;;13.03;100.00;97753.16;15266947;19;20090;-43
2023/05/10 08:03:58;;;;;;;1.60;1.50;;;;;;;13.17;100.00;97754.97;15270584;19;20030;-45
2023/05/10 08:09:26;;;;;;;2.42;1.50;;;;;;;13.17;100.00;97763.09;15266655;19;20029;-43
2023/05/10 08:14:50;;;;;;;2.40;1.50;;;;;;;13.24;100.00;97772.09;15265429;19;20594;-43
2023/05/10 08:20:17;;;;;;;2.15;1.95;;;;;;;13.29;100.00;97779.63;15270191;19;20029;-44
2023/05/10 08:25:45;;;;;;;3.83;2.20;;;;;;;13.24;100.00;97780.19;15269225;19;20471;-44
2023/05/10 08:31:10;;;;;;;2.75;1.48;;;;;;;13.33;100.00;97789.03;15265251;19;20552;-44
2023/05/10 08:36:34;;;;;;;1.60;1.50;;;;;;;13.54;100.00;97788.19;15283876;19;20018;-45
2023/05/10 08:42:08;;;;;;;2.00;1.60;;;;;;;13.65;100.00;97794.09;15282376;19;20113;-45
2023/05/10 08:47:33;;;;;;;1.60;1.50;;;;;;;13.80;100.00;97802.97;15271129;19;20019;-46
2023/05/10 08:53:02;;;;;;;1.48;1.38;;;;;;;13.89;100.00;97806.34;15281653;19;20033;-44
2023/05/10 08:58:29;;;;;;;1.55;1.30;;;;;;;14.09;100.00;97809.19;15276317;19;20025;-46
2023/05/10 09:03:56;;;;;;;1.70;1.50;;;;;;;14.24;100.00;97816.38;15282810;19;20497;-46
2023/05/10 09:09:21;;;;;;;2.65;1.55;;;;;;;14.40;100.00;97826.88;15275866;19;20048;-46
2023/05/10 09:14:49;;;;;;;1.90;1.50;;;;;;;14.42;100.00;97816.66;15282246;19;20022;-44
2023/05/10 09:20:14;;;;;;;3.10;1.60;;;;;;;14.39;100.00;97830.63;15277715;19;20033;-46
2023/05/10 09:25:38;;;;;;;2.38;1.75;;;;;;;14.54;100.00;97835.06;15281355;19;20028;-44
2023/05/10 09:31:13;;;;;;;1.50;1.40;;;;;;;14.58;100.00;97830.91;15276693;19;20077;-46
2023/05/10 09:36:38;;;;;;;2.80;1.50;;;;;;;14.75;100.00;97842.28;15274564;19;20344;-44
2023/05/10 09:42:03;;;;;;;1.42;1.33;;;;;;;14.97;100.00;97839.44;15279782;19;20026;-45
2023/05/10 09:47:31;;;;;;;1.73;1.33;;;;;;;15.12;100.00;97847.38;15278672;19;20018;-45
2023/05/10 09:52:58;;;;;;;1.38;1.27;;;;;;;15.23;100.00;97838.66;15273973;19;20386;-44
2023/05/10 09:58:23;;;;;;;1.85;1.52;;;;;;;15.41;100.00;97847.03;15276514;19;20043;-45
2023/05/10 10:03:57;;;;;;;1.42;1.17;;;;;;;15.52;100.00;97848.28;15278751;19;20743;-48
2023/05/10 10:09:22;;;;;;;1.45;1.30;;;;;;;15.68;100.00;97847.06;15274179;19;20030;-43
2023/05/10 10:14:49;;;;;;;1.33;1.23;;;;;;;15.72;100.00;97840.16;15274090;19;20022;-43
2023/05/10 10:20:18;;;;;;;1.23;1.10;;;;;;;15.81;100.00;97845.41;15272333;19;20021;-44
2023/05/10 10:25:47;;;;;;;1.20;1.10;;;;;;;15.90;100.00;97849.63;15271362;19;20450;-46
2023/05/10 10:31:30;;;;;;;1.52;1.10;;;;;;;16.18;100.00;97835.78;15272710;19;20421;-45
2023/05/10 10:37:00;;;;;;;1.48;1.10;;;;;;;16.31;100.00;97832.19;15276120;19;20098;-44
2023/05/10 10:42:54;;;;;;;1.00;1.00;;;;;;;16.36;100.00;97834.25;15274759;19;20019;-45
2023/05/10 10:48:24;;;;;;;1.25;0.95;;;;;;;16.38;100.00;97825.91;15272563;19;20018;-44
2023/05/10 10:53:52;;;;;;;1.00;0.90;;;;;;;16.42;100.00;97829.84;15268552;19;20014;-49
2023/05/10 10:59:29;;;;;;;1.08;0.93;;;;;;;16.52;100.00;97826.69;15270732;19;20326;-44
2023/05/10 11:04:54;;;;;;;1.10;1.00;;;;;;;16.59;100.00;97825.63;15275526;19;20032;-45
2023/05/10 11:10:25;;;;;;;1.58;0.90;;;;;;;16.67;100.00;97823.72;15272458;19;20022;-44
2023/05/10 11:15:59;;;;;;;1.00;0.77;;;;;;;16.62;100.00;97822.50;15271305;19;20026;-48
2023/05/10 11:21:24;;;;;;;0.77;0.77;;;;;;;16.69;100.00;97824.31;15271394;19;20541;-45
2023/05/10 11:26:52;;;;;;;0.75;0.70;;;;;;;16.54;100.00;97832.75;15267259;19;20047;-45
2023/05/10 11:32:17;;;;;;;0.60;0.60;;;;;;;16.40;100.00;97832.78;15271658;19;20018;-45
2023/05/10 11:37:36;;;;;;;0.68;0.68;;;;;;;16.24;100.00;97830.53;15270898;19;20055;-44
2023/05/10 11:43:05;;;;;;;0.50;0.50;;;;;;;15.79;100.00;97848.31;15268157;19;20055;-44
2023/05/10 11:48:32;;;;;;;0.98;0.88;;;;;;;15.50;100.00;97861.25;15266706;19;20692;-44
2023/05/10 11:53:59;;;;;;;1.20;1.00;;;;;;;15.23;100.00;97880.22;15270853;19;20549;-46
2023/05/10 11:59:28;;;;;;;1.33;1.00;;;;;;;14.99;100.00;97897.88;15262222;19;20027;-45
2023/05/10 12:04:52;;;;;;;1.73;1.10;;;;;;;14.52;100.00;97918.47;15269641;19;20045;-45
2023/05/10 12:10:17;;;;;;;1.20;1.10;;;;;;;14.43;100.00;97925.91;15281969;19;20485;-45
2023/05/10 12:15:45;;;;;;;1.02;0.80;;;;;;;14.12;100.00;97941.53;15287110;19;20010;-48
2023/05/10 12:21:12;;;;;;;1.30;0.80;;;;;;;14.06;100.00;97946.88;15286965;19;20090;-46
2023/05/10 12:26:38;;;;;;;1.00;0.90;;;;;;;13.93;100.00;97956.56;15281017;19;20714;-43
2023/05/10 12:32:06;;;;;;;1.15;0.80;;;;;;;13.83;100.00;97961.47;15271571;19;20026;-45
2023/05/10 12:37:35;;;;;;;1.30;0.88;;;;;;;13.77;100.00;97987.44;15278520;19;20015;-46
2023/05/10 12:43:01;;;;;;;3.72;0.70;;;;;;;13.78;100.00;97989.13;15280243;19;20011;-45
2023/05/10 12:48:28;;;;;;;0.63;0.57;;;;;;;13.78;100.00;97981.00;15277952;19;20022;-44
2023/05/10 12:53:54;;;;;;;0.25;0.25;;;;;;;13.90;100.00;97966.97;15279678;19;20038;-44
2023/05/10 12:59:20;;;;;;;1.08;0.30;;;;;;;13.92;100.00;97956.78;15277126;19;20025;-44
2023/05/10 13:04:48;;;;;;;0.20;0.20;;;;;;;14.01;100.00;97964.56;15276058;19;20624;-47
2023/05/10 13:10:15;;;;;;;0.40;0.20;;;;;;;14.07;100.00;97965.63;15277589;19;20026;-45
2023/05/10 13:15:42;;;;;;;0.20;0.10;;;;;;;14.18;100.00;97945.31;15280139;19;20035;-44
2023/05/10 13:21:12;;;;;;;1.05;0.20;;;;;;;14.29;100.00;97942.06;15272896;19;20707;-45
2023/05/10 13:26:36;;;;;;;0.68;0.10;;;;;;;14.47;100.00;97938.88;15274544;19;20482;-46
2023/05/10 13:32:01;;;;;;;0.10;0.10;;;;;;;14.59;100.00;97935.59;15274191;19;20364;-44
2023/05/10 13:37:29;;;;;;;0.47;0.10;;;;;;;14.76;100.00;97947.81;15271886;19;20380;-45
2023/05/10 13:42:53;;;;;;;0.50;0.50;;;;;;;15.00;100.00;97945.63;15273193;19;20018;-44
2023/05/10 13:48:18;;;;;;;1.17;0.20;;;;;;;15.16;100.00;97935.50;15273435;19;20022;-45
2023/05/10 13:53:46;;;;;;;2.08;0.50;;;;;;;15.24;100.00;97938.88;15276949;19;20019;-44
2023/05/10 13:59:12;;;;;;;0.10;0.10;;;;;;;15.37;100.00;97934.53;15275259;19;20026;-46
2023/05/10 14:04:36;;;;;;;0.03;0.03;;;;;;;15.30;100.00;97931.78;15277554;19;20089;-46
2023/05/10 14:10:04;;;;;;;0.38;0.20;;;;;;;15.33;100.00;97936.81;15267296;19;20022;-45
2023/05/10 14:15:30;;;;;;;1.98;0.20;;;;;;;15.45;100.00;97928.91;15273922;19;20026;-45
2023/05/10 14:20:56;;;;;;;0.25;0.25;;;;;;;15.52;100.00;97923.50;15269714;19;20014;-47
2023/05/10 14:26:23;;;;;;;0.20;0.20;;;;;;;15.69;100.00;97919.34;15269796;19;20037;-44
2023/05/10 14:31:48;;;;;;;0.30;0.30;;;;;;;15.85;100.00;97915.44;15264777;19;20014;-45
2023/05/10 14:37:12;;;;;;;0.20;0.20;;;;;;;16.04;100.00;97910.19;15271715;19;20018;-46
2023/05/10 14:42:39;;;;;;;0.30;0.20;;;;;;;16.22;100.00;97912.28;15267541;19;20014;-44
2023/05/10 14:48:05;;;;;;;0.50;0.22;;;;;;;16.43;100.00;97896.78;15267455;19;20018;-45
2023/05/10 14:53:30;;;;;;;1.10;0.30;;;;;;;16.71;100.00;97898.41;15247727;19;20014;-45
2023/05/10 14:58:59;;;;;;;0.85;0.20;;;;;;;16.87;100.00;97889.78;15271257;19;20608;-45
2023/05/10 15:04:24;;;;;;;0.28;0.20;;;;;;;16.98;100.00;97893.72;15272452;19;20030;-47
2023/05/10 15:09:48;;;;;;;0.40;0.20;;;;;;;17.12;100.00;97902.66;15273889;19;20006;-49
2023/05/10 15:15:15;;;;;;;0.08;0.08;;;;;;;17.21;100.00;97904.09;15272302;19;20011;-46
2023/05/10 15:20:40;;;;;;;0.32;0.15;;;;;;;17.28;100.00;97903.22;15277747;19;20022;-46
2023/05/10 15:26:06;;;;;;;0.73;0.20;;;;;;;17.28;100.00;97897.75;15274381;19;20014;-47
2023/05/10 15:31:40;;;;;;;0.55;0.10;;;;;;;17.37;100.00;97907.34;15268291;19;20013;-44
2023/05/10 15:37:06;;;;;;;0.10;0.10;;;;;;;17.91;100.00;97902.38;15271506;19;20015;-48
2023/05/10 15:42:30;;;;;;;0.32;0.20;;;;;;;18.18;100.00;97902.19;15278717;19;20011;-48
2023/05/10 15:47:57;;;;;;;0.22;0.10;;;;;;;18.21;100.00;97903.63;15280743;19;20067;-48
2023/05/10 15:53:22;;;;;;;0.30;0.20;;;;;;;18.07;100.00;97906.47;15281333;19;20770;-47
2023/05/10 15:58:46;;;;;;;1.02;0.20;;;;;;;17.96;100.00;97904.44;15270770;19;20018;-47
2023/05/10 16:04:14;;;;;;;0.88;0.20;;;;;;;17.84;100.00;97913.31;15281116;19;20013;-48
2023/05/10 16:09:32;;;;;;;1.55;0.10;;;;;;;17.87;100.00;97912.06;15279940;19;20014;-45
2023/05/10 16:14:57;;;;;;;1.88;0.20;;;;;;;17.88;100.00;97913.72;15285740;19;20010;-45
2023/05/10 16:20:27;;;;;;;0.30;0.30;;;;;;;17.94;100.00;97917.44;15284146;19;20018;-46
2023/05/10 16:25:54;;;;;;;0.20;0.20;;;;;;;17.99;100.00;97909.47;15283639;19;20024;-45
2023/05/10 16:31:19;;;;;;;0.30;0.30;;;;;;;18.05;100.00;97913.22;15277956;19;20587;-45
2023/05/10 16:36:48;;;;;;;0.47;0.22;;;;;;;18.10;100.00;97918.84;15279128;19;20010;-45
2023/05/10 16:42:13;;;;;;;1.00;0.30;;;;;;;18.19;100.00;97925.69;15289686;19;20475;-45
2023/05/10 16:47:40;;;;;;;0.45;0.45;;;;;;;18.24;100.00;97931.28;15282648;19;20022;-46
2023/05/10 16:53:08;;;;;;;0.70;0.38;;;;;;;18.25;100.00;97929.41;15278976;19;20019;-44
2023/05/10 16:58:33;;;;;;;0.35;0.30;;;;;;;18.18;100.00;97933.00;15279014;19;20542;-46
2023/05/10 17:03:57;;;;;;;1.45;0.40;;;;;;;18.08;100.00;97940.84;15283901;19;20011;-45
2023/05/10 17:09:24;;;;;;;1.02;0.47;;;;;;;17.92;100.00;97941.38;15266136;19;20018;-45
2023/05/10 17:14:49;;;;;;;0.45;0.40;;;;;;;17.69;100.00;97942.78;15282686;19;20037;-51
2023/05/10 17:20:14;;;;;;;0.60;0.60;;;;;;;17.60;100.00;97953.09;15277758;19;20022;-53
2023/05/10 17:25:43;;;;;;;0.68;0.68;;;;;;;17.55;100.00;97948.31;15280758;19;20018;-52
2023/05/10 17:31:15;;;;;;;0.70;0.70;;;;;;;17.44;100.00;97973.50;15273990;19;20030;-44
2023/05/10 17:36:41;;;;;;;0.60;0.60;;;;;;;17.39;100.00;97970.59;15278858;19;20473;-47
2023/05/10 17:42:08;;;;;;;3.72;0.80;;;;;;;17.21;100.00;97974.88;15272630;19;20474;-48
2023/05/10 17:47:33;;;;;;;0.82;0.60;;;;;;;17.16;100.00;97979.28;15274553;19;20361;-46
2023/05/10 17:52:57;;;;;;;1.00;0.60;;;;;;;17.18;100.00;97975.28;15276741;19;20473;-43
2023/05/10 17:58:24;;;;;;;0.52;0.50;;;;;;;17.10;100.00;97972.81;15276899;19;20367;-44
2023/05/10 18:03:50;;;;;;;0.98;0.80;;;;;;;17.04;100.00;97973.66;15275595;19;20026;-45
2023/05/10 18:09:16;;;;;;;0.82;0.70;;;;;;;16.88;100.00;97980.38;15270687;19;20011;-45
2023/05/10 18:14:44;;;;;;;0.80;0.80;;;;;;;16.74;100.00;97988.56;15272314;19;20010;-45
2023/05/10 18:20:10;;;;;;;0.82;0.60;;;;;;;16.61;100.00;97989.44;15274830;19;20393;-43
2023/05/10 18:25:35;;;;;;;0.80;0.80;;;;;;;16.46;100.00;97994.25;15278241;19;20021;-44
2023/05/10 18:31:11;;;;;;;1.33;0.70;;;;;;;16.33;100.00;98001.34;15268805;19;20466;-45
2023/05/10 18:36:36;;;;;;;0.60;0.60;;;;;;;16.18;100.00;98008.84;15270185;19;20408;-48
2023/05/10 18:42:01;;;;;;;0.60;0.60;;;;;;;15.99;100.00;98014.06;15273835;19;20014;-46
2023/05/10 18:47:28;;;;;;;0.70;0.60;;;;;;;15.86;100.00;98017.59;15264770;19;20019;-42
2023/05/10 18:52:54;;;;;;;0.82;0.73;;;;;;;15.77;100.00;98024.22;15269336;19;20090;-44
2023/05/10 18:58:20;;;;;;;0.80;0.60;;;;;;;15.68;100.00;98031.72;15263573;19;20022;-45
2023/05/10 19:03:47;;;;;;;1.23;0.70;;;;;;;15.60;100.00;98039.22;15281211;19;20469;-42
2023/05/10 19:09:12;;;;;;;0.90;0.80;;;;;;;15.54;100.00;98046.28;15281831;19;20021;-44
2023/05/10 19:14:36;;;;;;;0.55;0.50;;;;;;;15.46;100.00;98050.03;15278985;19;20006;-44
2023/05/10 19:20:04;;;;;;;2.67;0.60;;;;;;;15.39;100.00;98055.41;15276048;19;20130;-43
2023/05/10 19:25:28;;;;;;;1.75;0.80;;;;;;;15.30;100.00;98066.63;15274477;19;20014;-42
2023/05/10 19:31:03;;;;;;;1.00;0.80;;;;;;;15.11;100.00;98074.47;15270443;19;20025;-78
2023/05/10 19:36:31;;;;;;;1.40;0.80;;;;;;;15.06;100.00;98077.78;15281557;19;20022;-77
2023/05/10 19:41:56;;;;;;;0.70;0.70;;;;;;;14.61;100.00;98096.19;15302593;19;20039;-78
2023/05/10 19:47:22;;;;;;;0.40;0.40;;;;;;;14.15;100.00;98106.38;15266828;19;20017;-76
2023/05/10 19:52:49;;;;;;;0.93;0.30;;;;;;;13.78;100.00;98116.38;15273949;19;20048;-77
2023/05/10 19:58:14;;;;;;;0.85;0.40;;;;;;;13.49;100.00;98139.72;15271356;19;20041;-76
2023/05/10 20:03:38;;;;;;;0.52;0.32;;;;;;;13.32;100.00;98141.75;15274269;19;20026;-75
2023/05/10 20:09:06;;;;;;;2.25;0.40;;;;;;;13.21;100.00;98153.88;15269889;19;20014;-76
2023/05/10 20:14:30;;;;;;;1.25;0.45;;;;;;;12.97;100.00;98170.34;15269596;19;20197;-76
2023/05/10 20:19:55;;;;;;;0.57;0.40;;;;;;;12.93;100.00;98176.13;15260679;19;20031;-77
2023/05/10 20:25:23;;;;;;;0.52;0.40;;;;;;;12.79;100.00;98193.97;15273707;19;20014;-77
2023/05/10 20:30:55;;;;;;;0.75;0.30;;;;;;;12.74;100.00;98198.25;15274712;19;20013;-77
2023/05/10 20:36:20;;;;;;;2.33;0.70;;;;;;;12.69;100.00;98209.59;15294398;19;20014;-77
2023/05/10 20:41:48;;;;;;;0.40;0.40;;;;;;;12.67;100.00;98213.50;15293135;19;20029;-76
2023/05/10 20:47:13;;;;;;;0.40;0.40;;;;;;;12.64;100.00;98210.13;15283298;19;20431;-75
2023/05/10 20:52:37;;;;;;;0.30;0.30;;;;;;;12.62;100.00;98217.59;15281671;19;20234;-77
2023/05/10 20:58:05;;;;;;;1.05;0.45;;;;;;;12.62;100.00;98216.75;15285223;19;20025;-76
2023/05/10 21:03:30;;;;;;;3.30;0.40;;;;;;;12.59;100.00;98223.34;15287349;19;20007;-75
2023/05/10 21:08:55;;;;;;;0.75;0.50;;;;;;;12.57;100.00;98219.97;15285897;19;20035;-76
2023/05/10 21:14:22;;;;;;;0.73;0.40;;;;;;;12.49;100.00;98218.16;15305228;19;20027;-76
2023/05/10 21:19:47;;;;;;;0.45;0.45;;;;;;;12.52;100.00;98221.53;15339808;19;20018;-76
2023/05/10 21:25:12;;;;;;;0.55;0.30;;;;;;;12.49;100.00;98215.47;15323076;19;20014;-75
2023/05/10 21:30:39;;;;;;;0.80;0.35;;;;;;;12.41;100.00;98218.22;15323407;19;20026;-75
2023/05/10 21:36:06;;;;;;;0.88;0.50;;;;;;;12.39;100.00;98216.72;15284650;19;20022;-75
2023/05/10 21:41:31;;;;;;;0.73;0.50;;;;;;;12.37;100.00;98213.38;15282946;19;20366;-77
2023/05/10 21:46:58;;;;;;;0.57;0.50;;;;;;;12.33;100.00;98213.72;15278343;19;20010;-76
2023/05/10 21:52:23;;;;;;;0.40;0.30;;;;;;;12.39;100.00;98216.72;15283989;19;20007;-76
2023/05/10 21:57:48;;;;;;;1.17;0.40;;;;;;;12.41;100.00;98211.97;15275530;19;20023;-75
2023/05/10 22:03:15;;;;;;;0.40;0.40;;;;;;;12.44;100.00;98217.03;15282490;19;20265;-74
2023/05/10 22:08:40;;;;;;;0.43;0.28;;;;;;;12.45;100.00;98208.75;15276972;19;20039;-74
2023/05/10 22:14:05;;;;;;;1.25;0.52;;;;;;;12.49;100.00;98195.72;15279021;19;20629;-76
2023/05/10 22:19:32;;;;;;;0.30;0.30;;;;;;;12.49;100.00;98198.44;15278114;19;20082;-74
2023/05/10 22:24:57;;;;;;;3.55;0.60;;;;;;;12.50;100.00;98197.41;15282441;19;20017;-75
2023/05/10 22:30:21;;;;;;;0.65;0.52;;;;;;;12.51;100.00;98193.69;15271410;19;20010;-77
2023/05/10 22:35:51;;;;;;;1.52;0.60;;;;;;;12.51;100.00;98192.84;15284396;19;20014;-75
2023/05/10 22:41:16;;;;;;;0.45;0.45;;;;;;;12.52;100.00;98192.69;15278160;19;20034;-76
2023/05/10 22:46:41;;;;;;;0.98;0.52;;;;;;;12.52;100.00;98191.81;15279121;19;20014;-74
2023/05/10 22:52:08;;;;;;;0.75;0.63;;;;;;;12.49;100.00;98190.31;15277177;19;20030;-75
2023/05/10 22:57:33;;;;;;;0.70;0.57;;;;;;;12.50;100.00;98189.31;15275362;19;20007;-76
2023/05/10 23:02:58;;;;;;;1.27;0.52;;;;;;;12.48;100.00;98181.34;15265457;19;20044;-48
2023/05/10 23:08:26;;;;;;;1.75;0.70;;;;;;;12.46;100.00;98188.81;15271492;19;20014;-46
2023/05/10 23:13:51;;;;;;;1.00;0.70;;;;;;;12.46;100.00;98193.38;15273184;19;20375;-48
2023/05/10 23:19:17;;;;;;;0.70;0.60;;;;;;;12.45;100.00;98202.50;15271549;19;20127;-46
2023/05/10 23:24:47;;;;;;;0.70;0.70;;;;;;;12.45;100.00;98203.34;15273589;19;20019;-51
2023/05/10 23:30:13;;;;;;;1.70;0.57;;;;;;;12.45;100.00;98203.34;15270036;19;20024;-50
2023/05/10 23:35:37;;;;;;;0.70;0.70;;;;;;;12.44;100.00;98208.91;15265777;19;20015;-50
2023/05/10 23:41:05;;;;;;;1.67;0.90;;;;;;;12.42;100.00;98213.66;15267789;19;20011;-47
2023/05/10 23:46:29;;;;;;;0.80;0.80;;;;;;;12.36;100.00;98220.59;15272445;19;20018;-51
2023/05/10 23:51:55;;;;;;;1.20;0.80;;;;;;;12.33;100.00;98224.50;15271791;19;20014;-48
2023/05/10 23:57:22;;;;;;;1.25;0.80;;;;;;;12.29;100.00;98219.66;15270230;19;20396;-48
